Time;durP1;ratioP1;P1;durP2;ratioP2;P2;SDS_P1;SDS_P2;PMS_P1;PMS_P2;Temp;Humidity;BMP_temperature;BMP_pressure;BME280_temperature;BME280_humidity;BME280_pressure;Samples;Min_cycle;Max_cycle;Signal;HPM_P1;HPM_P2
2023/06/14 00:00:43;;;;;;;5.75;2.00;;;18.90;67.40;;;;;;5048108;28;20126;-56
2023/06/14 00:03:10;;;;;;;5.60;2.28;;;18.80;67.40;;;;;;5047094;28;20044;-56
2023/06/14 00:05:42;;;;;;;4.00;2.20;;;18.70;67.40;;;;;;5050039;28;20055;-56
2023/06/14 00:08:09;;;;;;;6.38;2.08;;;18.70;67.60;;;;;;5074923;28;20102;-56
2023/06/14 00:10:35;;;;;;;4.60;2.08;;;18.60;67.60;;;;;;5062224;28;20063;-56
2023/06/14 00:13:04;;;;;;;3.53;2.30;;;18.50;67.60;;;;;;5072283;28;20053;-55
2023/06/14 00:15:33;;;;;;;3.90;1.92;;;18.50;67.80;;;;;;5066534;28;20072;-55
2023/06/14 00:18:00;;;;;;;6.45;2.33;;;18.40;67.90;;;;;;5059798;28;20045;-55
2023/06/14 00:20:32;;;;;;;3.95;2.10;;;18.40;67.90;;;;;;5070395;28;20044;-55
2023/06/14 00:22:58;;;;;;;5.82;2.33;;;18.30;68.10;;;;;;5069063;28;20037;-55
2023/06/14 00:25:27;;;;;;;7.00;2.30;;;18.30;68.20;;;;;;5066458;28;20048;-55
2023/06/14 00:27:54;;;;;;;6.88;2.30;;;18.20;68.30;;;;;;5058757;28;20056;-55
2023/06/14 00:30:20;;;;;;;6.72;2.10;;;18.10;68.40;;;;;;5057604;28;20048;-56
2023/06/14 00:32:47;;;;;;;6.88;2.45;;;18.00;68.60;;;;;;5059197;28;20597;-55
2023/06/14 00:35:13;;;;;;;3.80;2.03;;;18.00;68.60;;;;;;5065618;28;20036;-56
2023/06/14 00:37:39;;;;;;;5.88;2.30;;;17.90;68.60;;;;;;5057071;28;20090;-56
2023/06/14 00:40:05;;;;;;;4.32;2.20;;;17.90;68.90;;;;;;5065288;28;20060;-55
2023/06/14 00:42:31;;;;;;;5.97;2.20;;;17.80;69.00;;;;;;5059120;28;20428;-55
2023/06/14 00:44:57;;;;;;;4.30;2.15;;;17.70;69.20;;;;;;5077152;28;20063;-56
2023/06/14 00:47:23;;;;;;;3.38;1.88;;;17.70;69.30;;;;;;5075102;28;20408;-57
2023/06/14 00:49:53;;;;;;;2.80;2.10;;;17.60;70.10;;;;;;5076578;28;20040;-55
2023/06/14 00:52:20;;;;;;;5.35;2.38;;;17.90;69.80;;;;;;5078216;28;20049;-55
2023/06/14 00:54:46;;;;;;;5.28;2.03;;;17.50;69.80;;;;;;5075984;28;20128;-56
2023/06/14 00:57:12;;;;;;;3.92;1.92;;;17.40;69.80;;;;;;5081994;28;20098;-56
2023/06/14 00:59:48;;;;;;;5.93;2.33;;;17.40;70.00;;;;;;5075720;28;20037;-55
2023/06/14 01:02:15;;;;;;;2.80;1.73;;;17.40;70.20;;;;;;5078645;28;20408;-56
2023/06/14 01:04:47;;;;;;;4.05;2.13;;;17.40;70.10;;;;;;5071946;28;20043;-56
2023/06/14 01:07:36;;;;;;;4.10;2.03;;;17.30;70.20;;;;;;5079501;28;20094;-55
2023/06/14 01:10:21;;;;;;;5.85;2.00;;;17.30;70.40;;;;;;5066981;28;20036;-56
2023/06/14 01:13:07;;;;;;;3.30;1.65;;;17.30;70.50;;;;;;5073383;28;20091;-55
2023/06/14 01:15:34;;;;;;;3.00;1.83;;;17.30;70.60;;;;;;5070823;28;20496;-55
2023/06/14 01:18:02;;;;;;;4.78;1.75;;;17.20;70.40;;;;;;5073276;28;20046;-55
2023/06/14 01:20:36;;;;;;;7.65;2.03;;;17.20;70.60;;;;;;5065348;28;20091;-55
2023/06/14 01:23:02;;;;;;;6.30;2.45;;;17.10;70.80;;;;;;5076952;28;20063;-56
2023/06/14 01:25:28;;;;;;;3.38;1.80;;;17.00;71.00;;;;;;5081703;28;20036;-59
2023/06/14 01:27:59;;;;;;;6.57;2.17;;;16.90;71.10;;;;;;5067623;28;20039;-55
2023/06/14 01:30:26;;;;;;;4.40;2.35;;;16.90;71.50;;;;;;5079968;28;20531;-56
2023/06/14 01:32:53;;;;;;;5.65;2.03;;;16.80;71.60;;;;;;5076126;28;20036;-57
2023/06/14 01:35:19;;;;;;;3.53;1.92;;;16.80;71.50;;;;;;5071285;28;20048;-56
2023/06/14 01:37:48;;;;;;;7.30;1.92;;;16.80;71.80;;;;;;5061130;28;20259;-56
2023/06/14 01:40:16;;;;;;;3.88;2.17;;;16.80;72.10;;;;;;5062588;28;20069;-56
2023/06/14 01:42:43;;;;;;;5.35;2.20;;;16.70;72.20;;;;;;5081972;28;20085;-56
2023/06/14 01:45:10;;;;;;;5.95;1.83;;;16.70;72.30;;;;;;5081348;28;20144;-58
2023/06/14 01:47:36;;;;;;;4.05;1.83;;;16.60;72.60;;;;;;5062427;28;20051;-56
2023/06/14 01:50:03;;;;;;;4.75;2.03;;;16.50;72.90;;;;;;5061899;28;20505;-56
2023/06/14 01:52:29;;;;;;;5.88;2.08;;;16.50;73.00;;;;;;5062013;28;20037;-55
2023/06/14 01:54:55;;;;;;;5.70;2.22;;;16.50;73.40;;;;;;5069735;28;20127;-56
2023/06/14 01:57:23;;;;;;;3.88;1.98;;;16.40;73.10;;;;;;5079871;28;20098;-56
2023/06/14 01:59:49;;;;;;;4.50;2.00;;;16.40;73.40;;;;;;5079876;28;20100;-55
2023/06/14 02:02:15;;;;;;;4.22;1.88;;;16.40;73.70;;;;;;5079466;28;20072;-55
2023/06/14 02:04:41;;;;;;;3.83;2.15;;;16.40;73.80;;;;;;5080253;28;20093;-55
2023/06/14 02:07:08;;;;;;;4.97;1.80;;;16.30;73.80;;;;;;5060767;28;20399;-56
2023/06/14 02:09:34;;;;;;;3.55;2.05;;;16.30;74.20;;;;;;5066004;28;20096;-55
2023/06/14 02:12:00;;;;;;;3.75;1.88;;;16.20;74.10;;;;;;5064928;28;20059;-55
2023/06/14 02:14:26;;;;;;;3.45;2.00;;;16.20;74.20;;;;;;5072499;28;20045;-56
2023/06/14 02:16:53;;;;;;;7.00;2.03;;;16.20;74.50;;;;;;5068656;28;20048;-56
2023/06/14 02:19:20;;;;;;;6.50;2.08;;;16.10;74.60;;;;;;5077283;28;20040;-56
2023/06/14 02:21:46;;;;;;;5.78;1.90;;;16.10;74.90;;;;;;5062375;28;20053;-55
2023/06/14 02:24:12;;;;;;;4.63;2.00;;;16.10;75.20;;;;;;5066571;28;20044;-56
2023/06/14 02:26:38;;;;;;;3.47;1.60;;;16.00;75.00;;;;;;5075784;28;20045;-55
2023/06/14 02:29:05;;;;;;;4.30;2.22;;;16.00;75.00;;;;;;5073309;28;20079;-55
2023/06/14 02:31:32;;;;;;;6.45;2.08;;;16.60;75.60;;;;;;5064454;28;20037;-55
2023/06/14 02:33:57;;;;;;;3.17;1.92;;;15.90;75.90;;;;;;5070815;28;20033;-56
2023/06/14 02:36:24;;;;;;;3.75;2.22;;;15.90;76.10;;;;;;5060585;28;20094;-56
2023/06/14 02:38:49;;;;;;;3.63;2.10;;;15.80;76.10;;;;;;5061073;28;20055;-56
2023/06/14 02:41:15;;;;;;;4.70;2.20;;;15.80;76.20;;;;;;5060047;28;20041;-55
2023/06/14 02:43:41;;;;;;;6.53;1.98;;;15.80;76.60;;;;;;5064226;28;20060;-56
2023/06/14 02:46:07;;;;;;;4.20;2.00;;;15.80;76.70;;;;;;5076502;28;20040;-57
2023/06/14 02:48:33;;;;;;;3.47;2.10;;;15.70;77.00;;;;;;5060410;28;20086;-56
2023/06/14 02:50:58;;;;;;;4.22;2.22;;;15.70;77.00;;;;;;5060364;28;20049;-56
2023/06/14 02:53:24;;;;;;;6.05;2.33;;;15.70;77.10;;;;;;5060693;28;20080;-57
2023/06/14 02:55:50;;;;;;;5.93;2.10;;;15.60;77.30;;;;;;5060411;28;20059;-56
2023/06/14 02:58:15;;;;;;;5.78;2.00;;;15.70;77.30;;;;;;5061713;28;20044;-56
2023/06/14 03:00:42;;;;;;;5.93;2.15;;;15.70;77.60;;;;;;5065654;28;20044;-57
2023/06/14 03:03:13;;;;;;;5.00;2.33;;;15.70;77.90;;;;;;5070194;28;20128;-56
2023/06/14 03:05:49;;;;;;;5.07;2.10;;;15.60;77.70;;;;;;5067083;28;20057;-56
2023/06/14 03:08:16;;;;;;;5.10;1.98;;;15.60;78.00;;;;;;5069407;28;20408;-56
2023/06/14 03:10:51;;;;;;;3.60;2.20;;;15.60;78.10;;;;;;5067255;28;20045;-56
2023/06/14 03:13:20;;;;;;;6.03;2.25;;;15.60;78.30;;;;;;5072803;28;20040;-57
2023/06/14 03:15:47;;;;;;;2.75;2.10;;;15.60;78.30;;;;;;5061247;28;20075;-55
2023/06/14 03:18:14;;;;;;;6.13;1.95;;;15.50;78.50;;;;;;5060038;28;20057;-57
2023/06/14 03:20:40;;;;;;;6.03;2.47;;;15.50;79.20;;;;;;5067828;28;20102;-56
2023/06/14 03:23:07;;;;;;;3.65;2.10;;;15.50;79.10;;;;;;5067387;28;20045;-56
2023/06/14 03:25:38;;;;;;;4.43;2.00;;;15.50;79.00;;;;;;5064182;28;20124;-56
2023/06/14 03:28:04;;;;;;;4.13;1.85;;;15.50;79.20;;;;;;5061072;28;20083;-55
2023/06/14 03:30:31;;;;;;;3.60;2.45;;;15.50;79.20;;;;;;5067484;28;20051;-55
2023/06/14 03:32:57;;;;;;;3.33;2.10;;;15.50;79.60;;;;;;5071622;28;20076;-56
2023/06/14 03:35:23;;;;;;;4.47;2.30;;;15.50;79.50;;;;;;5073991;28;20041;-55
2023/06/14 03:37:49;;;;;;;4.00;1.83;;;15.50;79.90;;;;;;5080082;28;20068;-56
2023/06/14 03:40:17;;;;;;;5.05;2.13;;;15.50;80.00;;;;;;5079344;28;20071;-56
2023/06/14 03:42:43;;;;;;;4.10;2.30;;;15.50;80.00;;;;;;5078925;28;20047;-56
2023/06/14 03:45:09;;;;;;;4.53;2.20;;;15.50;80.10;;;;;;5060750;28;20041;-56
2023/06/14 03:47:35;;;;;;;5.80;2.28;;;15.50;80.40;;;;;;5061659;28;20060;-56
2023/06/14 03:50:05;;;;;;;4.13;1.92;;;15.40;80.60;;;;;;5068553;28;20044;-55
2023/06/14 03:52:31;;;;;;;3.75;2.10;;;15.40;81.00;;;;;;5065805;28;20048;-55
2023/06/14 03:54:59;;;;;;;3.28;1.80;;;15.40;80.90;;;;;;5079446;28;20493;-57
2023/06/14 03:57:25;;;;;;;4.50;2.05;;;15.40;81.00;;;;;;5068576;28;20037;-55
2023/06/14 03:59:50;;;;;;;5.30;2.20;;;15.50;81.10;;;;;;5072763;28;20598;-55
2023/06/14 04:02:17;;;;;;;5.28;2.03;;;15.40;81.50;;;;;;5079344;28;20037;-57
2023/06/14 04:04:48;;;;;;;4.70;2.20;;;15.40;81.40;;;;;;5079190;28;20127;-56
2023/06/14 04:07:15;;;;;;;6.57;2.08;;;15.40;81.50;;;;;;5079611;28;20045;-56
2023/06/14 04:09:41;;;;;;;7.75;1.90;;;15.40;81.80;;;;;;5077088;28;20036;-56
2023/06/14 04:12:11;;;;;;;7.88;2.28;;;15.40;81.80;;;;;;5072909;28;20076;-55
2023/06/14 04:14:37;;;;;;;6.20;2.50;;;15.40;82.10;;;;;;5059543;28;20053;-56
2023/06/14 04:17:03;;;;;;;3.78;2.10;;;15.40;82.70;;;;;;5059052;28;20083;-56
2023/06/14 04:19:29;;;;;;;7.03;2.30;;;15.40;82.30;;;;;;5062709;28;20212;-55
2023/06/14 04:21:55;;;;;;;4.88;2.40;;;15.40;82.30;;;;;;5077070;28;20033;-56
2023/06/14 04:24:20;;;;;;;5.47;2.38;;;15.40;82.80;;;;;;5079621;28;20086;-58
2023/06/14 04:26:47;;;;;;;3.92;2.00;;;15.40;83.00;;;;;;5076378;28;20432;-57
2023/06/14 04:29:15;;;;;;;3.85;2.15;;;15.40;83.00;;;;;;5063026;28;20091;-57
2023/06/14 04:31:45;;;;;;;4.68;2.22;;;15.40;83.20;;;;;;5067246;28;20092;-56
2023/06/14 04:34:15;;;;;;;3.67;2.38;;;15.40;83.30;;;;;;5061390;28;20123;-56
2023/06/14 04:36:48;;;;;;;4.53;2.30;;;15.40;83.40;;;;;;5067001;28;20072;-56
2023/06/14 04:39:16;;;;;;;4.60;2.10;;;15.40;83.40;;;;;;5070386;28;20040;-56
2023/06/14 04:41:41;;;;;;;8.25;2.10;;;15.40;83.60;;;;;;5070009;28;20155;-56
2023/06/14 04:44:07;;;;;;;8.27;2.17;;;15.40;83.40;;;;;;5059806;28;20061;-56
2023/06/14 04:46:45;;;;;;;4.30;2.30;;;15.50;83.80;;;;;;5066154;28;20048;-57
2023/06/14 04:49:15;;;;;;;3.72;2.17;;;15.50;83.90;;;;;;5064914;28;20044;-56
2023/06/14 04:51:42;;;;;;;6.68;2.00;;;15.50;83.90;;;;;;5068961;28;20025;-56
2023/06/14 04:54:14;;;;;;;3.58;2.22;;;15.50;84.00;;;;;;5067978;28;20043;-56
2023/06/14 04:56:42;;;;;;;4.07;2.42;;;15.60;84.00;;;;;;5058976;28;20037;-56
2023/06/14 04:59:08;;;;;;;6.40;2.35;;;15.50;83.90;;;;;;5064469;28;20051;-57
2023/06/14 05:01:35;;;;;;;4.78;2.67;;;15.60;84.30;;;;;;5061146;28;20044;-57
2023/06/14 05:04:01;;;;;;;5.05;2.42;;;15.60;84.20;;;;;;5066329;28;20164;-56
2023/06/14 05:06:27;;;;;;;5.25;2.30;;;15.60;84.40;;;;;;5077225;28;20455;-56
2023/06/14 05:08:53;;;;;;;5.78;2.35;;;15.70;84.60;;;;;;5069933;28;20062;-57
2023/06/14 05:11:19;;;;;;;5.57;2.50;;;15.70;84.70;;;;;;5072746;28;20045;-56
2023/06/14 05:13:46;;;;;;;4.90;2.40;;;15.70;84.70;;;;;;5066969;28;20044;-56
2023/06/14 05:16:12;;;;;;;5.78;2.65;;;15.80;84.80;;;;;;5068543;28;20053;-56
2023/06/14 05:18:38;;;;;;;6.95;2.40;;;15.80;84.80;;;;;;5059326;28;20413;-56
2023/06/14 05:21:07;;;;;;;6.05;2.40;;;15.90;85.00;;;;;;5067476;28;20048;-56
2023/06/14 05:23:32;;;;;;;4.55;2.60;;;15.90;84.90;;;;;;5078389;28;20043;-56
2023/06/14 05:25:58;;;;;;;3.80;2.20;;;15.90;84.80;;;;;;5077546;28;20071;-56
2023/06/14 05:28:24;;;;;;;5.72;2.58;;;16.00;84.80;;;;;;5057424;28;20041;-56
2023/06/14 05:30:51;;;;;;;3.90;2.65;;;16.10;84.90;;;;;;5065910;28;20047;-56
2023/06/14 05:33:17;;;;;;;6.65;3.03;;;16.20;84.90;;;;;;5065186;28;20041;-56
2023/06/14 05:35:42;;;;;;;4.30;2.38;;;16.20;84.90;;;;;;5057919;28;20116;-58
2023/06/14 05:38:08;;;;;;;9.10;2.40;;;16.30;84.70;;;;;;5072567;28;20463;-57
2023/06/14 05:40:34;;;;;;;7.05;2.65;;;16.40;84.70;;;;;;5080668;28;20041;-57
2023/06/14 05:43:00;;;;;;;3.38;2.22;;;16.50;84.60;;;;;;5082102;28;20098;-57
2023/06/14 05:45:26;;;;;;;6.25;2.55;;;16.50;84.50;;;;;;5074955;28;20040;-58
2023/06/14 05:47:54;;;;;;;6.35;2.83;;;16.60;84.40;;;;;;5079447;28;20079;-57
2023/06/14 05:50:20;;;;;;;4.65;3.30;;;16.60;84.30;;;;;;5079739;28;20048;-57
2023/06/14 05:52:46;;;;;;;4.07;2.63;;;16.70;84.30;;;;;;5078952;28;20519;-57
2023/06/14 05:55:12;;;;;;;23.98;3.00;;;16.80;84.20;;;;;;5077147;28;20040;-57
2023/06/14 05:57:38;;;;;;;4.18;2.65;;;16.90;84.20;;;;;;5077314;28;20188;-57
2023/06/14 06:00:10;;;;;;;5.43;2.55;;;17.00;83.90;;;;;;5060656;28;20547;-56
2023/06/14 06:02:36;;;;;;;6.45;3.00;;;17.00;83.70;;;;;;5079271;28;20051;-57
2023/06/14 06:05:02;;;;;;;5.60;2.60;;;17.10;83.50;;;;;;5078377;28;20036;-57
2023/06/14 06:07:28;;;;;;;4.80;2.50;;;17.20;83.30;;;;;;5076482;28;20134;-56
2023/06/14 06:09:53;;;;;;;7.38;2.83;;;17.20;83.00;;;;;;5076603;28;20048;-57
2023/06/14 06:12:19;;;;;;;4.95;2.50;;;17.30;82.90;;;;;;5080937;28;20139;-57
2023/06/14 06:14:45;;;;;;;6.80;2.35;;;17.40;82.60;;;;;;5080629;28;20086;-57
2023/06/14 06:17:10;;;;;;;6.60;2.65;;;17.50;82.60;;;;;;5066501;28;20526;-57
2023/06/14 06:19:36;;;;;;;4.05;2.45;;;17.60;82.40;;;;;;5062515;28;20064;-55
2023/06/14 06:22:04;;;;;;;3.78;2.25;;;17.70;82.30;;;;;;5060410;28;20037;-58
2023/06/14 06:24:30;;;;;;;4.45;2.10;;;17.80;82.00;;;;;;5068500;28;20041;-56
2023/06/14 06:26:56;;;;;;;6.93;2.53;;;17.90;81.70;;;;;;5071850;28;20101;-58
2023/06/14 06:29:21;;;;;;;4.28;2.30;;;18.10;81.30;;;;;;5073613;28;20449;-57
2023/06/14 06:31:47;;;;;;;4.57;2.25;;;18.20;80.90;;;;;;5053124;28;20025;-56
2023/06/14 06:34:13;;;;;;;3.70;2.05;;;18.30;80.50;;;;;;5066519;28;20420;-56
2023/06/14 06:36:38;;;;;;;4.88;2.33;;;18.50;80.20;;;;;;5064413;28;20028;-57
2023/06/14 06:39:09;;;;;;;5.68;3.00;;;18.80;79.90;;;;;;5070831;28;20045;-57
2023/06/14 06:41:39;;;;;;;4.18;2.58;;;18.90;79.40;;;;;;5072637;28;20052;-57
2023/06/14 06:44:06;;;;;;;2.92;2.10;;;19.10;78.90;;;;;;5059607;28;20052;-57
2023/06/14 06:46:33;;;;;;;3.78;2.25;;;19.30;78.60;;;;;;5064182;28;20045;-57
2023/06/14 06:48:59;;;;;;;4.60;2.22;;;19.50;78.20;;;;;;5074211;28;20048;-57
2023/06/14 06:51:25;;;;;;;3.05;2.10;;;19.70;77.70;;;;;;5066363;28;20323;-57
2023/06/14 06:53:54;;;;;;;5.75;2.10;;;19.90;77.40;;;;;;5061419;28;20109;-57
2023/06/14 06:56:23;;;;;;;4.07;2.05;;;20.10;76.70;;;;;;5064017;28;20079;-57
2023/06/14 06:58:51;;;;;;;6.50;2.30;;;20.20;76.00;;;;;;5065966;28;20059;-55
2023/06/14 07:01:17;;;;;;;3.50;1.85;;;20.40;75.40;;;;;;5068362;28;20067;-55
2023/06/14 07:03:43;;;;;;;3.47;2.20;;;20.50;75.30;;;;;;5071920;28;20040;-57
2023/06/14 07:06:10;;;;;;;3.10;2.22;;;20.60;74.50;;;;;;5058494;28;20040;-58
2023/06/14 07:08:36;;;;;;;6.38;2.17;;;20.70;73.90;;;;;;5064557;28;20040;-56
2023/06/14 07:11:02;;;;;;;4.93;1.83;;;20.90;73.60;;;;;;5067512;28;20048;-56
2023/06/14 07:13:29;;;;;;;4.03;2.20;;;21.00;73.50;;;;;;5064083;28;20091;-57
2023/06/14 07:15:57;;;;;;;3.65;2.33;;;21.10;73.50;;;;;;5071497;28;20452;-57
2023/06/14 07:18:22;;;;;;;4.30;2.00;;;21.30;73.00;;;;;;5069274;28;20078;-57
2023/06/14 07:20:48;;;;;;;5.72;2.10;;;21.50;72.90;;;;;;5073079;28;20056;-57
2023/06/14 07:23:14;;;;;;;4.60;2.20;;;21.60;72.10;;;;;;5070993;28;20037;-57
2023/06/14 07:25:39;;;;;;;5.47;2.10;;;21.70;71.30;;;;;;5068004;28;20444;-57
2023/06/14 07:28:05;;;;;;;4.57;2.10;;;21.80;71.50;;;;;;5066303;28;20045;-56
2023/06/14 07:30:31;;;;;;;4.38;2.13;;;21.90;71.70;;;;;;5069941;28;20041;-56
2023/06/14 07:32:57;;;;;;;4.85;2.08;;;22.20;71.50;;;;;;5073612;28;20040;-56
2023/06/14 07:35:23;;;;;;;4.78;2.28;;;22.70;70.60;;;;;;5067705;28;20040;-56
2023/06/14 07:37:49;;;;;;;4.13;2.00;;;22.60;70.50;;;;;;5073249;28;20055;-55
2023/06/14 07:40:15;;;;;;;4.22;2.13;;;22.90;70.10;;;;;;5068126;28;20040;-57
2023/06/14 07:42:42;;;;;;;3.97;2.25;;;23.20;69.10;;;;;;5064440;28;20541;-56
2023/06/14 07:45:08;;;;;;;2.70;1.90;;;23.50;68.70;;;;;;5070473;28;20032;-56
2023/06/14 07:47:34;;;;;;;5.22;1.90;;;23.70;67.50;;;;;;5068512;28;20111;-57
2023/06/14 07:50:06;;;;;;;5.25;2.15;;;23.90;67.40;;;;;;5065929;28;20048;-57
2023/06/14 07:52:32;;;;;;;4.65;2.10;;;24.00;66.50;;;;;;5067490;28;20048;-57
2023/06/14 07:54:58;;;;;;;2.90;2.10;;;24.10;66.00;;;;;;5072466;28;20049;-57
2023/06/14 07:57:24;;;;;;;4.55;1.92;;;24.20;65.80;;;;;;5065976;28;20051;-57
2023/06/14 07:59:50;;;;;;;6.72;1.83;;;24.40;66.00;;;;;;5063547;28;20500;-57
2023/06/14 08:02:16;;;;;;;2.15;1.75;;;24.50;65.20;;;;;;5062772;28;20116;-57
2023/06/14 08:04:42;;;;;;;8.07;2.10;;;24.60;65.20;;;;;;5076248;28;20037;-57
2023/06/14 08:07:08;;;;;;;5.18;1.98;;;24.80;65.00;;;;;;5067348;28;20052;-58
2023/06/14 08:09:34;;;;;;;6.78;2.00;;;25.00;65.10;;;;;;5064467;28;20071;-58
2023/06/14 08:12:00;;;;;;;5.07;2.08;;;25.10;64.30;;;;;;5069145;28;20033;-57
2023/06/14 08:14:26;;;;;;;4.05;1.90;;;25.20;64.40;;;;;;5070404;28;20044;-57
2023/06/14 08:16:51;;;;;;;4.22;2.10;;;25.30;64.00;;;;;;5061168;28;20108;-58
2023/06/14 08:19:18;;;;;;;10.63;2.00;;;25.50;63.50;;;;;;5064734;28;20142;-57
2023/06/14 08:21:43;;;;;;;3.95;2.10;;;25.50;62.80;;;;;;5071238;28;20071;-57
2023/06/14 08:24:12;;;;;;;4.05;1.92;;;25.70;63.20;;;;;;5067475;28;20052;-58
2023/06/14 08:26:39;;;;;;;5.40;1.77;;;25.80;63.00;;;;;;5064444;28;20029;-58
2023/06/14 08:29:06;;;;;;;5.75;2.10;;;25.90;63.20;;;;;;5067145;28;20053;-58
2023/06/14 08:31:33;;;;;;;3.67;1.85;;;26.00;62.10;;;;;;5062982;28;20076;-57
2023/06/14 08:33:59;;;;;;;4.00;1.75;;;25.80;61.40;;;;;;5063644;28;20044;-57
2023/06/14 08:36:25;;;;;;;2.20;1.65;;;26.10;61.60;;;;;;5057244;28;20074;-57
2023/06/14 08:38:50;;;;;;;4.85;1.65;;;26.20;61.10;;;;;;5065139;28;20120;-57
2023/06/14 08:41:25;;;;;;;3.95;1.90;;;26.30;60.70;;;;;;5063798;28;20076;-57
2023/06/14 08:43:52;;;;;;;4.40;1.95;;;26.30;58.40;;;;;;5063516;28;20417;-57
2023/06/14 08:46:22;;;;;;;3.25;1.70;;;26.20;58.60;;;;;;5053055;28;20105;-57
2023/06/14 08:48:52;;;;;;;3.85;1.70;;;26.20;58.20;;;;;;5053996;28;20037;-58
2023/06/14 08:51:22;;;;;;;3.95;1.95;;;26.20;58.20;;;;;;5067378;28;20096;-58
2023/06/14 08:53:58;;;;;;;5.00;2.00;;;26.20;58.50;;;;;;5059414;28;20075;-56
2023/06/14 08:56:28;;;;;;;2.55;1.90;;;26.20;58.50;;;;;;5062426;28;20045;-57
2023/06/14 08:58:56;;;;;;;2.55;1.90;;;26.20;58.80;;;;;;5071012;28;20048;-58
2023/06/14 09:01:23;;;;;;;2.40;1.65;;;26.30;59.40;;;;;;5056717;28;20080;-57
2023/06/14 09:03:49;;;;;;;3.42;1.80;;;26.40;59.60;;;;;;5068861;28;20047;-56
2023/06/14 09:06:16;;;;;;;4.70;1.77;;;26.60;59.60;;;;;;5059349;28;20037;-57
2023/06/14 09:08:47;;;;;;;7.95;2.17;;;26.70;59.20;;;;;;5062650;28;20075;-57
2023/06/14 09:11:14;;;;;;;4.93;1.90;;;26.70;59.20;;;;;;5064379;28;20045;-59
2023/06/14 09:13:40;;;;;;;2.33;1.60;;;26.80;59.00;;;;;;5070694;28;20480;-57
2023/06/14 09:16:07;;;;;;;5.45;1.63;;;26.90;58.10;;;;;;5076406;28;20049;-57
2023/06/14 09:18:40;;;;;;;6.05;1.98;;;26.90;57.80;;;;;;5069366;28;20040;-56
2023/06/14 09:21:07;;;;;;;3.35;1.65;;;26.80;57.30;;;;;;5071483;28;20060;-57
2023/06/14 09:23:38;;;;;;;2.97;1.65;;;26.80;57.40;;;;;;5071577;28;20543;-56
2023/06/14 09:26:19;;;;;;;2.72;1.88;;;26.80;56.80;;;;;;5070409;28;20083;-57
2023/06/14 09:28:49;;;;;;;5.97;1.63;;;26.60;56.90;;;;;;5067464;28;20049;-57
2023/06/14 09:31:20;;;;;;;3.35;1.90;;;26.60;57.70;;;;;;5077715;28;20052;-57
2023/06/14 09:33:48;;;;;;;2.85;1.70;;;26.70;57.70;;;;;;5061790;28;20041;-56
2023/06/14 09:36:25;;;;;;;2.83;1.77;;;26.90;57.90;;;;;;5066467;28;20036;-58
2023/06/14 09:38:57;;;;;;;2.25;1.67;;;27.00;57.20;;;;;;5058130;28;20041;-57
2023/06/14 09:41:41;;;;;;;1.92;1.60;;;27.10;57.70;;;;;;5065869;28;20063;-56
2023/06/14 09:44:08;;;;;;;3.83;1.90;;;27.20;57.10;;;;;;5061244;28;20121;-57
2023/06/14 09:46:35;;;;;;;3.58;1.70;;;27.10;57.00;;;;;;5072491;28;20068;-56
2023/06/14 09:49:02;;;;;;;3.22;1.88;;;27.10;57.50;;;;;;5063975;28;20048;-57
2023/06/14 09:51:30;;;;;;;2.65;1.60;;;27.10;57.70;;;;;;5066047;28;20056;-57
2023/06/14 09:54:04;;;;;;;2.63;1.70;;;27.00;57.40;;;;;;5061633;28;20045;-56
2023/06/14 09:56:43;;;;;;;4.05;1.50;;;27.00;57.30;;;;;;5064383;28;20042;-56
2023/06/14 09:59:09;;;;;;;2.20;1.50;;;27.10;56.30;;;;;;5064406;28;20552;-57
2023/06/14 10:01:41;;;;;;;3.13;1.70;;;27.00;56.20;;;;;;5067640;28;20044;-57
2023/06/14 10:04:08;;;;;;;3.53;1.50;;;26.90;56.40;;;;;;5074657;28;20052;-57
2023/06/14 10:06:37;;;;;;;3.78;1.90;;;27.00;56.40;;;;;;5073945;28;20096;-57
2023/06/14 10:09:07;;;;;;;2.25;1.63;;;27.00;56.00;;;;;;5064684;28;20049;-56
2023/06/14 10:11:35;;;;;;;3.25;1.67;;;27.00;56.20;;;;;;5063391;28;20056;-57
2023/06/14 10:14:03;;;;;;;2.88;1.65;;;27.00;56.80;;;;;;5070392;28;20068;-56
2023/06/14 10:16:50;;;;;;;2.65;1.30;;;26.90;56.60;;;;;;5066972;28;20052;-57
2023/06/14 10:19:44;;;;;;;3.80;1.60;;;26.90;56.80;;;;;;5065460;28;20049;-56
2023/06/14 10:22:29;;;;;;;5.18;1.45;;;26.80;56.40;;;;;;5066015;28;20059;-56
2023/06/14 10:24:56;;;;;;;3.83;1.27;;;26.80;55.90;;;;;;5062558;28;20040;-56
2023/06/14 10:27:23;;;;;;;4.55;1.20;;;26.80;54.80;;;;;;5066575;28;20033;-57
2023/06/14 10:30:10;;;;;;;5.35;1.40;;;26.60;54.70;;;;;;5060873;28;20094;-57
2023/06/14 10:32:56;;;;;;;2.67;1.48;;;26.50;55.60;;;;;;5071249;28;20043;-58
2023/06/14 10:35:21;;;;;;;;;;;26.30;55.20;;;;;;5069540;28;20063;-54
2023/06/14 10:37:47;;;;;;;;;;;26.20;56.10;;;;;;5066081;28;19928;-56
2023/06/14 10:40:30;;;;;;;4.45;1.40;;;26.10;56.00;;;;;;5070888;28;19920;-57
2023/06/14 10:42:56;;;;;;;4.15;1.65;;;26.00;55.40;;;;;;5066192;28;20145;-57
2023/06/14 10:45:21;;;;;;;2.70;1.27;;;25.90;55.40;;;;;;5068624;28;20552;-57
2023/06/14 10:47:52;;;;;;;2.47;1.35;;;25.90;55.50;;;;;;5072747;28;20040;-56
2023/06/14 10:50:27;;;;;;;2.33;1.17;;;25.90;55.20;;;;;;5074516;28;20044;-57
2023/06/14 10:52:52;;;;;;;7.18;1.40;;;25.80;56.00;;;;;;5069391;28;20037;-57
2023/06/14 10:55:18;;;;;;;4.47;1.50;;;25.80;55.50;;;;;;5064425;28;20044;-58
2023/06/14 10:57:46;;;;;;;4.28;1.38;;;25.80;55.10;;;;;;5060166;28;20056;-57
2023/06/14 11:00:15;;;;;;;2.60;1.42;;;25.80;54.60;;;;;;5068785;28;20139;-57
2023/06/14 11:03:03;;;;;;;3.00;1.40;;;25.70;54.30;;;;;;5063946;28;20060;-58
2023/06/14 11:05:29;;;;;;;2.55;1.40;;;25.70;54.70;;;;;;5071583;28;20136;-57
2023/06/14 11:08:16;;;;;;;1.85;1.30;;;25.70;54.30;;;;;;5054506;28;20541;-57
2023/06/14 11:10:45;;;;;;;3.47;1.50;;;25.70;55.20;;;;;;5069243;28;20037;-58
2023/06/14 11:13:11;;;;;;;3.30;1.50;;;25.80;55.50;;;;;;5066372;28;20146;-57
2023/06/14 11:15:38;;;;;;;4.40;1.50;;;25.80;56.30;;;;;;5067150;28;20048;-56
2023/06/14 11:18:11;;;;;;;5.00;1.45;;;26.00;56.60;;;;;;5069713;28;20135;-57
2023/06/14 11:20:37;;;;;;;1.90;1.30;;;26.10;56.70;;;;;;5065584;28;20058;-57
2023/06/14 11:23:04;;;;;;;5.82;1.73;;;26.30;56.80;;;;;;5072143;28;20040;-58
2023/06/14 11:25:30;;;;;;;1.85;1.45;;;26.40;56.40;;;;;;5058850;28;20064;-58
2023/06/14 11:27:56;;;;;;;3.42;1.77;;;26.40;55.20;;;;;;5066053;28;20181;-58
2023/06/14 11:30:23;;;;;;;2.53;1.65;;;26.50;54.90;;;;;;5070126;28;20040;-58
2023/06/14 11:32:51;;;;;;;7.43;1.73;;;26.50;54.90;;;;;;5076694;28;20075;-57
2023/06/14 11:35:18;;;;;;;5.38;1.80;;;26.50;54.70;;;;;;5061915;28;20037;-57
2023/06/14 11:37:44;;;;;;;4.95;1.70;;;26.60;52.90;;;;;;5064462;28;20507;-57
2023/06/14 11:40:12;;;;;;;2.20;1.33;;;26.50;53.10;;;;;;5075665;28;20494;-57
2023/06/14 11:42:39;;;;;;;4.03;1.55;;;26.40;52.70;;;;;;5071010;28;20052;-57
2023/06/14 11:45:10;;;;;;;3.58;1.60;;;26.40;53.20;;;;;;5076160;28;20053;-57
2023/06/14 11:47:36;;;;;;;6.47;1.50;;;26.50;53.30;;;;;;5073416;28;20029;-58
2023/06/14 11:50:03;;;;;;;5.38;1.90;;;26.60;52.50;;;;;;5078872;28;20074;-57
2023/06/14 11:52:30;;;;;;;16.33;4.10;;;26.60;52.40;;;;;;5069650;28;20033;-58
2023/06/14 11:54:56;;;;;;;2.95;1.52;;;26.60;53.20;;;;;;5062458;28;20405;-58
2023/06/14 11:57:21;;;;;;;4.07;1.60;;;26.70;53.90;;;;;;5062194;28;20041;-58
2023/06/14 11:59:48;;;;;;;1.83;1.33;;;26.70;53.50;;;;;;5075665;28;20033;-57
2023/06/14 12:02:16;;;;;;;3.88;1.70;;;26.80;53.10;;;;;;5065187;28;20045;-57
2023/06/14 12:04:42;;;;;;;4.03;1.55;;;26.70;53.20;;;;;;5055876;28;20048;-57
2023/06/14 12:07:19;;;;;;;5.07;1.90;;;26.70;52.90;;;;;;5058083;28;20040;-57
2023/06/14 12:09:54;;;;;;;3.58;1.70;;;26.80;53.30;;;;;;5057199;28;20049;-57
2023/06/14 12:12:26;;;;;;;4.30;1.40;;;26.80;54.20;;;;;;5062396;28;20101;-57
2023/06/14 12:14:53;;;;;;;2.60;1.50;;;26.90;54.10;;;;;;5066078;28;20055;-57
2023/06/14 12:17:19;;;;;;;4.50;1.70;;;27.00;53.60;;;;;;5061641;28;20036;-58
2023/06/14 12:19:46;;;;;;;3.05;1.67;;;27.00;53.60;;;;;;5062519;28;20072;-57
2023/06/14 12:22:13;;;;;;;5.32;1.70;;;27.10;53.80;;;;;;5061181;28;20090;-58
2023/06/14 12:24:42;;;;;;;4.50;1.60;;;27.20;53.70;;;;;;5065496;28;20060;-58
2023/06/14 12:27:08;;;;;;;2.20;1.50;;;27.20;53.50;;;;;;5061043;28;20241;-58
2023/06/14 12:29:34;;;;;;;4.90;1.40;;;27.30;54.00;;;;;;5063760;28;20078;-57
2023/06/14 12:32:00;;;;;;;2.80;1.60;;;27.50;53.90;;;;;;5062057;28;20043;-58
2023/06/14 12:34:27;;;;;;;2.28;1.60;;;27.70;53.20;;;;;;5064928;28;20061;-57
2023/06/14 12:36:53;;;;;;;2.45;1.67;;;27.80;53.70;;;;;;5060792;28;20041;-58
2023/06/14 12:39:20;;;;;;;2.45;1.45;;;27.90;54.00;;;;;;5063943;28;20044;-58
2023/06/14 12:41:46;;;;;;;3.85;1.50;;;28.20;54.50;;;;;;5061576;28;20086;-58
2023/06/14 12:44:12;;;;;;;5.80;1.58;;;28.60;54.10;;;;;;5067384;28;20127;-58
2023/06/14 12:46:39;;;;;;;2.97;1.52;;;28.80;54.00;;;;;;5061778;28;20052;-58
2023/06/14 12:49:07;;;;;;;2.28;1.48;;;29.20;53.20;;;;;;5059515;28;20243;-58
2023/06/14 12:51:33;;;;;;;2.88;1.63;;;29.40;52.90;;;;;;5061697;28;20503;-58